sensor_id;sensor_type;location;lat;lon;timestamp;temperature;humidity
24326;DHT22;12448;45.532;5.290;2023-06-26T00:02:16;24.70;67.40
24326;DHT22;12448;45.532;5.290;2023-06-26T00:04:45;24.70;66.90
24326;DHT22;12448;45.532;5.290;2023-06-26T00:07:10;24.60;66.80
24326;DHT22;12448;45.532;5.290;2023-06-26T00:09:36;24.60;67.10
24326;DHT22;12448;45.532;5.290;2023-06-26T00:12:02;24.70;67.10
24326;DHT22;12448;45.532;5.290;2023-06-26T00:14:28;24.70;67.10
24326;DHT22;12448;45.532;5.290;2023-06-26T00:16:54;24.60;67.10
24326;DHT22;12448;45.532;5.290;2023-06-26T00:19:20;24.60;67.10
24326;DHT22;12448;45.532;5.290;2023-06-26T00:21:45;24.60;67.30
24326;DHT22;12448;45.532;5.290;2023-06-26T00:24:15;24.60;67.00
24326;DHT22;12448;45.532;5.290;2023-06-26T00:26:40;24.60;67.00
24326;DHT22;12448;45.532;5.290;2023-06-26T00:29:06;24.60;67.00
24326;DHT22;12448;45.532;5.290;2023-06-26T00:31:32;24.70;66.90
24326;DHT22;12448;45.532;5.290;2023-06-26T00:33:57;24.70;66.70
24326;DHT22;12448;45.532;5.290;2023-06-26T00:36:23;24.70;66.90
24326;DHT22;12448;45.532;5.290;2023-06-26T00:38:49;24.70;66.80
24326;DHT22;12448;45.532;5.290;2023-06-26T00:41:15;24.80;66.90
24326;DHT22;12448;45.532;5.290;2023-06-26T00:43:41;24.80;67.50
24326;DHT22;12448;45.532;5.290;2023-06-26T00:46:09;24.80;66.90
24326;DHT22;12448;45.532;5.290;2023-06-26T00:48:36;24.90;67.20
24326;DHT22;12448;45.532;5.290;2023-06-26T00:51:02;24.90;67.30
24326;DHT22;12448;45.532;5.290;2023-06-26T00:53:28;25.00;68.00
24326;DHT22;12448;45.532;5.290;2023-06-26T00:55:54;25.00;67.50
24326;DHT22;12448;45.532;5.290;2023-06-26T00:58:22;24.90;67.40
24326;DHT22;12448;45.532;5.290;2023-06-26T01:00:49;24.90;67.60
24326;DHT22;12448;45.532;5.290;2023-06-26T01:03:15;24.70;67.90
24326;DHT22;12448;45.532;5.290;2023-06-26T01:05:41;24.70;68.10
24326;DHT22;12448;45.532;5.290;2023-06-26T01:08:12;24.60;68.00
24326;DHT22;12448;45.532;5.290;2023-06-26T01:10:38;24.50;68.70
24326;DHT22;12448;45.532;5.290;2023-06-26T01:13:04;24.40;69.30
24326;DHT22;12448;45.532;5.290;2023-06-26T01:15:30;24.30;69.90
24326;DHT22;12448;45.532;5.290;2023-06-26T01:17:57;24.30;70.10
24326;DHT22;12448;45.532;5.290;2023-06-26T01:20:25;24.20;70.40
24326;DHT22;12448;45.532;5.290;2023-06-26T01:23:20;24.20;70.60
24326;DHT22;12448;45.532;5.290;2023-06-26T01:28:16;24.00;71.10
24326;DHT22;12448;45.532;5.290;2023-06-26T01:30:44;23.90;71.20
24326;DHT22;12448;45.532;5.290;2023-06-26T01:33:12;23.90;71.30
24326;DHT22;12448;45.532;5.290;2023-06-26T01:35:38;23.90;71.20
24326;DHT22;12448;45.532;5.290;2023-06-26T01:38:19;24.10;71.00
24326;DHT22;12448;45.532;5.290;2023-06-26T01:40:46;24.10;70.90
24326;DHT22;12448;45.532;5.290;2023-06-26T01:46:34;24.20;70.40
24326;DHT22;12448;45.532;5.290;2023-06-26T01:49:19;24.20;70.30
24326;DHT22;12448;45.532;5.290;2023-06-26T01:51:54;24.30;70.40
24326;DHT22;12448;45.532;5.290;2023-06-26T01:54:22;24.40;70.20
24326;DHT22;12448;45.532;5.290;2023-06-26T01:56:50;24.30;70.20
24326;DHT22;12448;45.532;5.290;2023-06-26T01:59:19;24.40;70.10
24326;DHT22;12448;45.532;5.290;2023-06-26T02:01:46;24.40;70.10
24326;DHT22;12448;45.532;5.290;2023-06-26T02:04:12;24.40;70.10
24326;DHT22;12448;45.532;5.290;2023-06-26T02:06:38;24.40;70.00
24326;DHT22;12448;45.532;5.290;2023-06-26T02:09:03;24.40;70.30
24326;DHT22;12448;45.532;5.290;2023-06-26T02:11:29;24.40;70.20
24326;DHT22;12448;45.532;5.290;2023-06-26T02:13:55;24.40;70.20
24326;DHT22;12448;45.532;5.290;2023-06-26T02:16:20;24.00;70.20
24326;DHT22;12448;45.532;5.290;2023-06-26T02:18:46;24.30;70.50
24326;DHT22;12448;45.532;5.290;2023-06-26T02:21:12;24.20;70.40
24326;DHT22;12448;45.532;5.290;2023-06-26T02:23:38;24.20;71.30
24326;DHT22;12448;45.532;5.290;2023-06-26T02:26:04;24.10;70.60
24326;DHT22;12448;45.532;5.290;2023-06-26T02:28:29;24.20;71.60
24326;DHT22;12448;45.532;5.290;2023-06-26T02:30:56;24.20;70.90
24326;DHT22;12448;45.532;5.290;2023-06-26T02:33:22;24.10;71.20
24326;DHT22;12448;45.532;5.290;2023-06-26T02:35:48;23.80;71.60
24326;DHT22;12448;45.532;5.290;2023-06-26T02:38:15;23.80;71.80
24326;DHT22;12448;45.532;5.290;2023-06-26T02:40:41;23.80;71.90
24326;DHT22;12448;45.532;5.290;2023-06-26T02:43:06;23.80;72.10
24326;DHT22;12448;45.532;5.290;2023-06-26T02:45:32;23.80;72.10
24326;DHT22;12448;45.532;5.290;2023-06-26T02:47:58;23.70;73.00
24326;DHT22;12448;45.532;5.290;2023-06-26T02:50:23;23.70;72.40
24326;DHT22;12448;45.532;5.290;2023-06-26T02:52:49;23.80;72.50
24326;DHT22;12448;45.532;5.290;2023-06-26T02:55:18;23.80;72.40
24326;DHT22;12448;45.532;5.290;2023-06-26T02:57:45;23.80;72.40
24326;DHT22;12448;45.532;5.290;2023-06-26T03:00:11;23.80;72.60
24326;DHT22;12448;45.532;5.290;2023-06-26T03:02:37;23.80;72.60
24326;DHT22;12448;45.532;5.290;2023-06-26T03:05:03;23.90;72.70
24326;DHT22;12448;45.532;5.290;2023-06-26T03:07:29;23.90;72.50
24326;DHT22;12448;45.532;5.290;2023-06-26T03:09:55;23.90;72.20
24326;DHT22;12448;45.532;5.290;2023-06-26T03:12:21;23.90;72.30
24326;DHT22;12448;45.532;5.290;2023-06-26T03:14:47;23.80;72.40
24326;DHT22;12448;45.532;5.290;2023-06-26T03:17:12;23.80;72.40
24326;DHT22;12448;45.532;5.290;2023-06-26T03:19:38;23.80;72.50
24326;DHT22;12448;45.532;5.290;2023-06-26T03:22:04;23.80;72.50
24326;DHT22;12448;45.532;5.290;2023-06-26T03:24:29;23.80;72.60
24326;DHT22;12448;45.532;5.290;2023-06-26T03:26:55;23.80;72.70
24326;DHT22;12448;45.532;5.290;2023-06-26T03:29:21;23.90;73.50
24326;DHT22;12448;45.532;5.290;2023-06-26T03:31:46;23.90;72.70
24326;DHT22;12448;45.532;5.290;2023-06-26T03:34:12;23.90;72.80
24326;DHT22;12448;45.532;5.290;2023-06-26T03:36:38;23.90;72.90
24326;DHT22;12448;45.532;5.290;2023-06-26T03:39:04;23.80;73.00
24326;DHT22;12448;45.532;5.290;2023-06-26T03:41:29;23.80;73.10
24326;DHT22;12448;45.532;5.290;2023-06-26T03:43:55;23.80;73.20
24326;DHT22;12448;45.532;5.290;2023-06-26T03:46:22;23.80;73.40
24326;DHT22;12448;45.532;5.290;2023-06-26T03:48:47;23.80;73.40
24326;DHT22;12448;45.532;5.290;2023-06-26T03:51:13;23.80;73.60
24326;DHT22;12448;45.532;5.290;2023-06-26T03:53:39;23.80;73.70
24326;DHT22;12448;45.532;5.290;2023-06-26T03:56:04;23.70;73.90
24326;DHT22;12448;45.532;5.290;2023-06-26T03:58:30;23.60;73.90
24326;DHT22;12448;45.532;5.290;2023-06-26T04:00:56;23.70;74.70
24326;DHT22;12448;45.532;5.290;2023-06-26T04:03:23;23.70;74.00
24326;DHT22;12448;45.532;5.290;2023-06-26T04:05:49;23.80;74.00
24326;DHT22;12448;45.532;5.290;2023-06-26T04:08:15;23.80;74.00
24326;DHT22;12448;45.532;5.290;2023-06-26T04:10:40;23.80;74.70
24326;DHT22;12448;45.532;5.290;2023-06-26T04:13:06;23.80;73.90
24326;DHT22;12448;45.532;5.290;2023-06-26T04:15:32;23.80;73.80
24326;DHT22;12448;45.532;5.290;2023-06-26T04:17:57;23.90;73.80
24326;DHT22;12448;45.532;5.290;2023-06-26T04:20:23;23.90;73.80
24326;DHT22;12448;45.532;5.290;2023-06-26T04:22:49;23.90;74.40
24326;DHT22;12448;45.532;5.290;2023-06-26T04:25:15;23.90;73.70
24326;DHT22;12448;45.532;5.290;2023-06-26T04:27:40;23.80;73.70
24326;DHT22;12448;45.532;5.290;2023-06-26T04:30:07;23.80;74.00
24326;DHT22;12448;45.532;5.290;2023-06-26T04:32:33;23.80;74.40
24326;DHT22;12448;45.532;5.290;2023-06-26T04:34:59;23.80;74.40
24326;DHT22;12448;45.532;5.290;2023-06-26T04:37:25;23.80;74.60
24326;DHT22;12448;45.532;5.290;2023-06-26T04:39:51;23.80;74.80
24326;DHT22;12448;45.532;5.290;2023-06-26T04:42:17;23.90;74.70
24326;DHT22;12448;45.532;5.290;2023-06-26T04:44:44;23.90;74.50
24326;DHT22;12448;45.532;5.290;2023-06-26T04:47:09;23.90;74.60
24326;DHT22;12448;45.532;5.290;2023-06-26T04:49:35;24.00;74.70
24326;DHT22;12448;45.532;5.290;2023-06-26T04:52:01;24.10;74.80
24326;DHT22;12448;45.532;5.290;2023-06-26T04:54:27;24.10;74.80
24326;DHT22;12448;45.532;5.290;2023-06-26T04:56:53;24.10;75.10
24326;DHT22;12448;45.532;5.290;2023-06-26T04:59:19;24.10;75.20
24326;DHT22;12448;45.532;5.290;2023-06-26T05:01:44;24.20;75.50
24326;DHT22;12448;45.532;5.290;2023-06-26T05:04:14;24.20;75.40
24326;DHT22;12448;45.532;5.290;2023-06-26T05:06:40;24.20;75.00
24326;DHT22;12448;45.532;5.290;2023-06-26T05:09:06;24.20;74.90
24326;DHT22;12448;45.532;5.290;2023-06-26T05:11:31;24.20;75.20
24326;DHT22;12448;45.532;5.290;2023-06-26T05:13:57;24.20;75.30
24326;DHT22;12448;45.532;5.290;2023-06-26T05:16:22;24.30;75.80
24326;DHT22;12448;45.532;5.290;2023-06-26T05:18:48;24.30;76.10
24326;DHT22;12448;45.532;5.290;2023-06-26T05:21:14;24.40;76.40
24326;DHT22;12448;45.532;5.290;2023-06-26T05:23:41;24.40;76.10
24326;DHT22;12448;45.532;5.290;2023-06-26T05:26:09;24.40;75.90
24326;DHT22;12448;45.532;5.290;2023-06-26T05:28:36;24.40;76.00
24326;DHT22;12448;45.532;5.290;2023-06-26T05:31:03;24.40;76.00
24326;DHT22;12448;45.532;5.290;2023-06-26T05:33:30;24.40;75.70
24326;DHT22;12448;45.532;5.290;2023-06-26T05:35:56;24.40;75.90
24326;DHT22;12448;45.532;5.290;2023-06-26T05:38:24;24.50;75.90
24326;DHT22;12448;45.532;5.290;2023-06-26T05:40:50;24.50;75.80
24326;DHT22;12448;45.532;5.290;2023-06-26T05:43:16;24.40;75.60
24326;DHT22;12448;45.532;5.290;2023-06-26T05:45:41;24.40;75.50
24326;DHT22;12448;45.532;5.290;2023-06-26T05:48:07;24.40;75.40
24326;DHT22;12448;45.532;5.290;2023-06-26T05:50:33;24.30;75.80
24326;DHT22;12448;45.532;5.290;2023-06-26T05:52:59;24.20;76.00
24326;DHT22;12448;45.532;5.290;2023-06-26T05:55:26;24.20;76.30
24326;DHT22;12448;45.532;5.290;2023-06-26T05:57:52;24.20;76.50
24326;DHT22;12448;45.532;5.290;2023-06-26T06:00:18;24.20;76.70
24326;DHT22;12448;45.532;5.290;2023-06-26T06:02:45;24.20;76.60
24326;DHT22;12448;45.532;5.290;2023-06-26T06:05:10;24.20;77.00
24326;DHT22;12448;45.532;5.290;2023-06-26T06:07:36;24.20;77.00
24326;DHT22;12448;45.532;5.290;2023-06-26T06:10:03;24.20;77.00
24326;DHT22;12448;45.532;5.290;2023-06-26T06:12:29;24.20;77.10
24326;DHT22;12448;45.532;5.290;2023-06-26T06:14:55;24.20;77.40
24326;DHT22;12448;45.532;5.290;2023-06-26T06:17:21;24.20;77.40
24326;DHT22;12448;45.532;5.290;2023-06-26T06:19:47;24.30;77.90
24326;DHT22;12448;45.532;5.290;2023-06-26T06:22:12;24.30;76.60
24326;DHT22;12448;45.532;5.290;2023-06-26T06:24:38;24.30;77.20
24326;DHT22;12448;45.532;5.290;2023-06-26T06:27:04;24.30;76.80
24326;DHT22;12448;45.532;5.290;2023-06-26T06:29:30;24.30;77.20
24326;DHT22;12448;45.532;5.290;2023-06-26T06:31:57;24.20;77.60
24326;DHT22;12448;45.532;5.290;2023-06-26T06:34:22;24.20;77.30
24326;DHT22;12448;45.532;5.290;2023-06-26T06:36:48;24.20;77.90
24326;DHT22;12448;45.532;5.290;2023-06-26T06:39:15;24.20;78.30
24326;DHT22;12448;45.532;5.290;2023-06-26T06:41:41;24.20;78.40
24326;DHT22;12448;45.532;5.290;2023-06-26T06:44:06;24.20;78.00
24326;DHT22;12448;45.532;5.290;2023-06-26T06:46:32;24.20;78.00
24326;DHT22;12448;45.532;5.290;2023-06-26T06:48:57;24.30;78.20
24326;DHT22;12448;45.532;5.290;2023-06-26T06:51:23;24.30;78.40
24326;DHT22;12448;45.532;5.290;2023-06-26T06:53:48;24.40;77.90
24326;DHT22;12448;45.532;5.290;2023-06-26T06:56:14;24.40;78.30
24326;DHT22;12448;45.532;5.290;2023-06-26T06:58:40;24.40;78.40
24326;DHT22;12448;45.532;5.290;2023-06-26T07:01:08;24.40;78.10
24326;DHT22;12448;45.532;5.290;2023-06-26T07:03:34;24.50;77.90
24326;DHT22;12448;45.532;5.290;2023-06-26T07:06:01;24.50;77.50
24326;DHT22;12448;45.532;5.290;2023-06-26T07:08:26;24.50;77.50
24326;DHT22;12448;45.532;5.290;2023-06-26T07:10:52;24.50;77.60
24326;DHT22;12448;45.532;5.290;2023-06-26T07:13:17;24.40;77.40
24326;DHT22;12448;45.532;5.290;2023-06-26T07:15:44;24.40;77.40
24326;DHT22;12448;45.532;5.290;2023-06-26T07:18:10;24.40;77.70
24326;DHT22;12448;45.532;5.290;2023-06-26T07:20:36;24.40;78.10
24326;DHT22;12448;45.532;5.290;2023-06-26T07:23:01;24.40;78.60
24326;DHT22;12448;45.532;5.290;2023-06-26T07:25:27;24.40;78.60
24326;DHT22;12448;45.532;5.290;2023-06-26T07:27:52;24.40;78.00
24326;DHT22;12448;45.532;5.290;2023-06-26T07:30:18;24.50;78.10
24326;DHT22;12448;45.532;5.290;2023-06-26T07:32:45;24.50;77.40
24326;DHT22;12448;45.532;5.290;2023-06-26T07:35:11;24.50;78.10
24326;DHT22;12448;45.532;5.290;2023-06-26T07:37:36;24.50;77.80
24326;DHT22;12448;45.532;5.290;2023-06-26T07:40:02;24.50;77.80
24326;DHT22;12448;45.532;5.290;2023-06-26T07:42:28;24.50;78.70
24326;DHT22;12448;45.532;5.290;2023-06-26T07:44:54;24.60;79.40
24326;DHT22;12448;45.532;5.290;2023-06-26T07:47:19;24.60;78.50
24326;DHT22;12448;45.532;5.290;2023-06-26T07:49:45;24.60;78.00
24326;DHT22;12448;45.532;5.290;2023-06-26T07:52:11;24.60;78.30
24326;DHT22;12448;45.532;5.290;2023-06-26T07:54:37;24.60;77.60
24326;DHT22;12448;45.532;5.290;2023-06-26T07:57:04;24.70;78.50
24326;DHT22;12448;45.532;5.290;2023-06-26T07:59:32;24.60;77.30
24326;DHT22;12448;45.532;5.290;2023-06-26T08:01:58;24.60;78.10
24326;DHT22;12448;45.532;5.290;2023-06-26T08:04:26;24.60;78.30
24326;DHT22;12448;45.532;5.290;2023-06-26T08:06:54;24.60;78.30
24326;DHT22;12448;45.532;5.290;2023-06-26T08:09:21;24.60;78.60
24326;DHT22;12448;45.532;5.290;2023-06-26T08:11:47;24.60;78.10
24326;DHT22;12448;45.532;5.290;2023-06-26T08:14:13;24.70;78.80
24326;DHT22;12448;45.532;5.290;2023-06-26T08:16:39;24.70;76.60
24326;DHT22;12448;45.532;5.290;2023-06-26T08:19:05;24.70;76.90
24326;DHT22;12448;45.532;5.290;2023-06-26T08:21:31;24.70;77.70
24326;DHT22;12448;45.532;5.290;2023-06-26T08:23:56;24.90;77.70
24326;DHT22;12448;45.532;5.290;2023-06-26T08:26:23;24.90;77.40
24326;DHT22;12448;45.532;5.290;2023-06-26T08:28:49;24.90;76.90
24326;DHT22;12448;45.532;5.290;2023-06-26T08:31:15;24.90;77.10
24326;DHT22;12448;45.532;5.290;2023-06-26T08:33:41;24.90;76.40
24326;DHT22;12448;45.532;5.290;2023-06-26T08:36:06;25.00;76.20
24326;DHT22;12448;45.532;5.290;2023-06-26T08:38:32;25.10;76.40
24326;DHT22;12448;45.532;5.290;2023-06-26T08:40:58;25.10;76.70
24326;DHT22;12448;45.532;5.290;2023-06-26T08:43:24;25.10;77.50
24326;DHT22;12448;45.532;5.290;2023-06-26T08:45:50;25.10;76.70
24326;DHT22;12448;45.532;5.290;2023-06-26T08:48:17;25.10;76.60
24326;DHT22;12448;45.532;5.290;2023-06-26T08:50:44;25.10;76.80
24326;DHT22;12448;45.532;5.290;2023-06-26T08:53:23;25.20;76.20
24326;DHT22;12448;45.532;5.290;2023-06-26T08:55:54;25.30;76.80
24326;DHT22;12448;45.532;5.290;2023-06-26T08:58:22;25.30;76.50
24326;DHT22;12448;45.532;5.290;2023-06-26T09:00:48;25.30;76.50
24326;DHT22;12448;45.532;5.290;2023-06-26T09:03:15;25.40;77.30
24326;DHT22;12448;45.532;5.290;2023-06-26T09:05:41;25.40;77.50
24326;DHT22;12448;45.532;5.290;2023-06-26T09:08:07;25.50;77.40
24326;DHT22;12448;45.532;5.290;2023-06-26T09:10:33;25.60;76.40
24326;DHT22;12448;45.532;5.290;2023-06-26T09:12:59;25.60;75.00
24326;DHT22;12448;45.532;5.290;2023-06-26T09:15:27;25.50;74.80
24326;DHT22;12448;45.532;5.290;2023-06-26T09:17:57;25.50;74.30
24326;DHT22;12448;45.532;5.290;2023-06-26T09:20:27;25.60;76.60
24326;DHT22;12448;45.532;5.290;2023-06-26T09:22:53;25.60;75.90
24326;DHT22;12448;45.532;5.290;2023-06-26T09:25:19;25.60;74.40
24326;DHT22;12448;45.532;5.290;2023-06-26T09:27:47;25.60;74.70
24326;DHT22;12448;45.532;5.290;2023-06-26T09:30:17;25.60;74.80
24326;DHT22;12448;45.532;5.290;2023-06-26T09:32:43;25.60;75.10
24326;DHT22;12448;45.532;5.290;2023-06-26T09:35:09;25.70;74.80
24326;DHT22;12448;45.532;5.290;2023-06-26T09:37:35;25.70;72.90
24326;DHT22;12448;45.532;5.290;2023-06-26T09:40:00;25.70;73.10
24326;DHT22;12448;45.532;5.290;2023-06-26T09:42:26;25.80;74.80
24326;DHT22;12448;45.532;5.290;2023-06-26T09:44:51;25.90;74.00
24326;DHT22;12448;45.532;5.290;2023-06-26T09:47:19;25.80;73.20
24326;DHT22;12448;45.532;5.290;2023-06-26T09:49:45;25.80;73.30
24326;DHT22;12448;45.532;5.290;2023-06-26T09:52:15;25.90;73.80
24326;DHT22;12448;45.532;5.290;2023-06-26T09:54:45;26.00;72.90
24326;DHT22;12448;45.532;5.290;2023-06-26T09:57:17;26.00;73.50
24326;DHT22;12448;45.532;5.290;2023-06-26T09:59:43;26.00;73.40
24326;DHT22;12448;45.532;5.290;2023-06-26T10:02:12;26.00;73.50
24326;DHT22;12448;45.532;5.290;2023-06-26T10:04:38;26.00;73.30
24326;DHT22;12448;45.532;5.290;2023-06-26T10:07:11;26.00;73.00
24326;DHT22;12448;45.532;5.290;2023-06-26T10:09:41;26.10;73.00
24326;DHT22;12448;45.532;5.290;2023-06-26T10:12:15;26.10;72.60
24326;DHT22;12448;45.532;5.290;2023-06-26T10:14:43;26.20;73.60
24326;DHT22;12448;45.532;5.290;2023-06-26T10:17:10;26.20;72.50
24326;DHT22;12448;45.532;5.290;2023-06-26T10:19:41;26.30;73.10
24326;DHT22;12448;45.532;5.290;2023-06-26T10:22:09;26.30;72.90
24326;DHT22;12448;45.532;5.290;2023-06-26T10:24:39;26.40;73.10
24326;DHT22;12448;45.532;5.290;2023-06-26T10:27:14;26.40;71.40
24326;DHT22;12448;45.532;5.290;2023-06-26T10:29:43;26.60;72.40
24326;DHT22;12448;45.532;5.290;2023-06-26T10:32:13;26.50;71.40
24326;DHT22;12448;45.532;5.290;2023-06-26T10:34:39;26.50;71.10
24326;DHT22;12448;45.532;5.290;2023-06-26T10:37:05;26.40;68.80
24326;DHT22;12448;45.532;5.290;2023-06-26T10:39:47;26.30;69.50
24326;DHT22;12448;45.532;5.290;2023-06-26T10:42:17;26.30;70.70
24326;DHT22;12448;45.532;5.290;2023-06-26T10:44:45;26.30;71.40
24326;DHT22;12448;45.532;5.290;2023-06-26T10:47:12;26.30;71.30
24326;DHT22;12448;45.532;5.290;2023-06-26T10:49:53;26.30;70.80
24326;DHT22;12448;45.532;5.290;2023-06-26T10:52:19;26.30;71.30
24326;DHT22;12448;45.532;5.290;2023-06-26T10:54:44;26.30;70.60
24326;DHT22;12448;45.532;5.290;2023-06-26T10:57:10;26.40;70.40
24326;DHT22;12448;45.532;5.290;2023-06-26T10:59:39;26.40;71.30
24326;DHT22;12448;45.532;5.290;2023-06-26T11:02:05;26.50;71.80
24326;DHT22;12448;45.532;5.290;2023-06-26T11:04:44;26.60;71.40
24326;DHT22;12448;45.532;5.290;2023-06-26T11:07:18;26.70;71.90
24326;DHT22;12448;45.532;5.290;2023-06-26T11:10:14;26.70;69.60
24326;DHT22;12448;45.532;5.290;2023-06-26T11:12:43;26.70;69.70
24326;DHT22;12448;45.532;5.290;2023-06-26T11:15:10;26.70;70.50
24326;DHT22;12448;45.532;5.290;2023-06-26T11:17:37;26.80;70.30
24326;DHT22;12448;45.532;5.290;2023-06-26T11:20:07;26.80;71.50
24326;DHT22;12448;45.532;5.290;2023-06-26T11:22:38;27.00;71.40
24326;DHT22;12448;45.532;5.290;2023-06-26T11:25:05;27.00;70.20
24326;DHT22;12448;45.532;5.290;2023-06-26T11:27:41;27.10;70.50
24326;DHT22;12448;45.532;5.290;2023-06-26T11:30:08;27.10;70.70
24326;DHT22;12448;45.532;5.290;2023-06-26T11:32:37;27.10;71.90
24326;DHT22;12448;45.532;5.290;2023-06-26T11:35:03;27.10;70.70
24326;DHT22;12448;45.532;5.290;2023-06-26T11:37:31;27.20;71.40
24326;DHT22;12448;45.532;5.290;2023-06-26T11:39:57;27.20;69.80
24326;DHT22;12448;45.532;5.290;2023-06-26T11:42:23;27.30;70.90
24326;DHT22;12448;45.532;5.290;2023-06-26T11:44:51;27.40;70.80
24326;DHT22;12448;45.532;5.290;2023-06-26T11:47:18;27.50;70.60
24326;DHT22;12448;45.532;5.290;2023-06-26T11:49:45;27.50;70.50
24326;DHT22;12448;45.532;5.290;2023-06-26T11:52:11;27.50;69.50
24326;DHT22;12448;45.532;5.290;2023-06-26T11:54:37;27.40;69.80
24326;DHT22;12448;45.532;5.290;2023-06-26T11:57:04;27.30;67.60
24326;DHT22;12448;45.532;5.290;2023-06-26T11:59:37;27.10;67.90
24326;DHT22;12448;45.532;5.290;2023-06-26T12:02:09;27.10;68.50
24326;DHT22;12448;45.532;5.290;2023-06-26T12:04:41;27.10;69.70
24326;DHT22;12448;45.532;5.290;2023-06-26T12:07:08;27.20;70.20
24326;DHT22;12448;45.532;5.290;2023-06-26T12:09:39;27.20;69.50
24326;DHT22;12448;45.532;5.290;2023-06-26T12:12:06;27.30;70.40
24326;DHT22;12448;45.532;5.290;2023-06-26T12:14:33;27.30;68.80
24326;DHT22;12448;45.532;5.290;2023-06-26T12:17:09;27.20;68.40
24326;DHT22;12448;45.532;5.290;2023-06-26T12:19:42;27.30;68.10
24326;DHT22;12448;45.532;5.290;2023-06-26T12:22:09;27.20;68.00
24326;DHT22;12448;45.532;5.290;2023-06-26T12:24:38;27.20;67.90
24326;DHT22;12448;45.532;5.290;2023-06-26T12:27:08;27.30;67.70
24326;DHT22;12448;45.532;5.290;2023-06-26T12:29:35;27.30;68.10
24326;DHT22;12448;45.532;5.290;2023-06-26T12:32:01;27.40;67.60
24326;DHT22;12448;45.532;5.290;2023-06-26T12:34:38;27.50;67.90
24326;DHT22;12448;45.532;5.290;2023-06-26T12:37:11;27.50;66.70
24326;DHT22;12448;45.532;5.290;2023-06-26T12:39:49;27.50;66.60
24326;DHT22;12448;45.532;5.290;2023-06-26T12:42:17;27.50;67.90
24326;DHT22;12448;45.532;5.290;2023-06-26T12:44:43;27.50;67.80
24326;DHT22;12448;45.532;5.290;2023-06-26T12:47:09;27.60;68.30
24326;DHT22;12448;45.532;5.290;2023-06-26T12:49:40;27.70;67.30
24326;DHT22;12448;45.532;5.290;2023-06-26T12:52:14;27.80;66.40
24326;DHT22;12448;45.532;5.290;2023-06-26T12:54:42;27.80;66.20
24326;DHT22;12448;45.532;5.290;2023-06-26T12:57:09;27.80;65.70
24326;DHT22;12448;45.532;5.290;2023-06-26T12:59:36;27.80;65.30
24326;DHT22;12448;45.532;5.290;2023-06-26T13:02:22;27.80;65.10
24326;DHT22;12448;45.532;5.290;2023-06-26T13:04:51;27.90;65.60
24326;DHT22;12448;45.532;5.290;2023-06-26T13:07:17;27.90;67.10
24326;DHT22;12448;45.532;5.290;2023-06-26T13:09:42;28.00;64.40
24326;DHT22;12448;45.532;5.290;2023-06-26T13:12:10;28.00;65.10
24326;DHT22;12448;45.532;5.290;2023-06-26T13:14:36;28.00;66.20
24326;DHT22;12448;45.532;5.290;2023-06-26T13:17:01;28.10;63.80
24326;DHT22;12448;45.532;5.290;2023-06-26T13:19:33;28.00;63.60
24326;DHT22;12448;45.532;5.290;2023-06-26T13:21:59;28.10;64.60
24326;DHT22;12448;45.532;5.290;2023-06-26T13:24:25;28.10;62.70
24326;DHT22;12448;45.532;5.290;2023-06-26T13:26:51;28.00;60.50
24326;DHT22;12448;45.532;5.290;2023-06-26T13:29:17;28.00;61.80
24326;DHT22;12448;45.532;5.290;2023-06-26T13:31:43;28.10;61.50
24326;DHT22;12448;45.532;5.290;2023-06-26T13:34:08;28.10;63.50
24326;DHT22;12448;45.532;5.290;2023-06-26T13:36:34;28.20;63.00
24326;DHT22;12448;45.532;5.290;2023-06-26T13:39:00;28.30;62.70
24326;DHT22;12448;45.532;5.290;2023-06-26T13:41:26;28.30;62.10
24326;DHT22;12448;45.532;5.290;2023-06-26T13:43:52;28.20;62.70
24326;DHT22;12448;45.532;5.290;2023-06-26T13:46:17;28.30;62.70
24326;DHT22;12448;45.532;5.290;2023-06-26T13:48:44;28.40;60.90
24326;DHT22;12448;45.532;5.290;2023-06-26T13:51:10;28.40;61.20
24326;DHT22;12448;45.532;5.290;2023-06-26T13:53:36;28.50;62.50
24326;DHT22;12448;45.532;5.290;2023-06-26T13:56:02;28.40;60.50
24326;DHT22;12448;45.532;5.290;2023-06-26T13:58:27;28.30;61.90
24326;DHT22;12448;45.532;5.290;2023-06-26T14:00:55;28.40;62.50
24326;DHT22;12448;45.532;5.290;2023-06-26T14:03:21;28.40;61.00
24326;DHT22;12448;45.532;5.290;2023-06-26T14:05:47;28.50;62.30
24326;DHT22;12448;45.532;5.290;2023-06-26T14:08:13;28.50;62.80
24326;DHT22;12448;45.532;5.290;2023-06-26T14:10:39;28.60;61.60
24326;DHT22;12448;45.532;5.290;2023-06-26T14:13:05;28.70;62.40
24326;DHT22;12448;45.532;5.290;2023-06-26T14:15:30;28.60;60.60
24326;DHT22;12448;45.532;5.290;2023-06-26T14:17:56;28.60;60.70
24326;DHT22;12448;45.532;5.290;2023-06-26T14:20:22;28.60;62.90
24326;DHT22;12448;45.532;5.290;2023-06-26T14:22:48;28.60;62.30
24326;DHT22;12448;45.532;5.290;2023-06-26T14:25:15;28.70;61.50
24326;DHT22;12448;45.532;5.290;2023-06-26T14:27:41;28.60;60.40
24326;DHT22;12448;45.532;5.290;2023-06-26T14:30:08;28.70;60.50
24326;DHT22;12448;45.532;5.290;2023-06-26T14:32:34;28.70;60.50
24326;DHT22;12448;45.532;5.290;2023-06-26T14:35:00;28.80;62.50
24326;DHT22;12448;45.532;5.290;2023-06-26T14:37:26;28.80;61.40
24326;DHT22;12448;45.532;5.290;2023-06-26T14:39:52;28.90;61.30
24326;DHT22;12448;45.532;5.290;2023-06-26T14:42:18;28.90;61.70
24326;DHT22;12448;45.532;5.290;2023-06-26T14:44:44;28.90;60.30
24326;DHT22;12448;45.532;5.290;2023-06-26T14:47:12;28.90;59.60
24326;DHT22;12448;45.532;5.290;2023-06-26T14:49:39;28.90;60.10
24326;DHT22;12448;45.532;5.290;2023-06-26T14:52:04;29.00;59.00
24326;DHT22;12448;45.532;5.290;2023-06-26T14:54:30;29.00;59.40
24326;DHT22;12448;45.532;5.290;2023-06-26T14:56:56;29.00;59.30
24326;DHT22;12448;45.532;5.290;2023-06-26T14:59:21;29.00;59.20
24326;DHT22;12448;45.532;5.290;2023-06-26T15:01:47;29.00;58.90
24326;DHT22;12448;45.532;5.290;2023-06-26T15:04:12;29.00;59.50
24326;DHT22;12448;45.532;5.290;2023-06-26T15:06:38;28.90;59.50
24326;DHT22;12448;45.532;5.290;2023-06-26T15:09:04;28.90;59.10
24326;DHT22;12448;45.532;5.290;2023-06-26T15:11:31;28.90;59.60
24326;DHT22;12448;45.532;5.290;2023-06-26T15:13:57;28.90;58.90
24326;DHT22;12448;45.532;5.290;2023-06-26T15:16:22;29.00;59.30
24326;DHT22;12448;45.532;5.290;2023-06-26T15:18:48;28.90;58.90
24326;DHT22;12448;45.532;5.290;2023-06-26T15:21:14;29.00;59.10
24326;DHT22;12448;45.532;5.290;2023-06-26T15:23:39;29.00;59.20
24326;DHT22;12448;45.532;5.290;2023-06-26T15:26:05;28.90;58.70
24326;DHT22;12448;45.532;5.290;2023-06-26T15:28:30;28.90;59.20
24326;DHT22;12448;45.532;5.290;2023-06-26T15:30:56;28.90;59.30
24326;DHT22;12448;45.532;5.290;2023-06-26T15:33:22;28.90;58.40
24326;DHT22;12448;45.532;5.290;2023-06-26T15:35:47;28.90;58.20